Time;durP1;ratioP1;P1;durP2;ratioP2;P2;SDS_P1;SDS_P2;PMS_P1;PMS_P2;Temp;Humidity;BMP_temperature;BMP_pressure;BME280_temperature;BME280_humidity;BME280_pressure;Samples;Min_cycle;Max_cycle;Signal;HPM_P1;HPM_P2
2023/12/16 00:00:17;;;;;;;2.80;0.90;;;7.10;99.90;;;;;;5135258;27;20417;-60
2023/12/16 00:02:44;;;;;;;2.45;1.05;;;7.10;99.90;;;;;;5135585;27;20426;-60
2023/12/16 00:05:11;;;;;;;2.03;0.90;;;7.10;99.90;;;;;;5135722;27;20524;-60
2023/12/16 00:07:38;;;;;;;2.50;1.00;;;7.20;99.90;;;;;;5136582;27;20422;-59
2023/12/16 00:10:07;;;;;;;2.00;1.10;;;7.20;99.90;;;;;;5136208;27;20483;-61
2023/12/16 00:12:34;;;;;;;3.20;1.13;;;7.20;99.90;;;;;;5136017;27;20724;-60
2023/12/16 00:15:03;;;;;;;2.10;1.20;;;7.30;99.90;;;;;;5136122;27;20418;-60
2023/12/16 00:17:32;;;;;;;3.10;1.20;;;7.30;99.90;;;;;;5136973;27;20422;-57
2023/12/16 00:19:59;;;;;;;2.03;1.13;;;7.20;99.90;;;;;;5135877;27;20422;-60
2023/12/16 00:22:26;;;;;;;2.60;1.15;;;7.20;99.90;;;;;;5135870;27;20434;-61
2023/12/16 00:24:53;;;;;;;1.88;1.00;;;7.10;99.90;;;;;;5135696;27;20418;-60
2023/12/16 00:27:20;;;;;;;1.92;1.00;;;7.10;99.90;;;;;;5136165;27;20403;-60
2023/12/16 00:29:47;;;;;;;3.15;0.93;;;7.00;99.90;;;;;;5135849;27;20492;-61
2023/12/16 00:32:16;;;;;;;2.88;1.00;;;7.10;99.90;;;;;;5135203;27;20419;-61
2023/12/16 00:34:43;;;;;;;2.78;1.10;;;7.20;99.90;;;;;;5133089;27;20419;-59
2023/12/16 00:37:10;;;;;;;1.60;1.00;;;7.20;99.90;;;;;;5133762;27;20419;-60
2023/12/16 00:39:37;;;;;;;2.00;1.10;;;7.30;99.90;;;;;;5133349;27;20479;-60
2023/12/16 00:42:05;;;;;;;2.20;1.08;;;7.40;99.90;;;;;;5133942;27;20829;-60
2023/12/16 00:44:33;;;;;;;2.30;1.00;;;7.50;99.90;;;;;;5134363;27;20691;-60
2023/12/16 00:47:00;;;;;;;2.00;1.10;;;7.40;99.90;;;;;;5134155;27;21136;-59
2023/12/16 00:49:29;;;;;;;2.20;1.15;;;7.40;99.90;;;;;;5135592;27;20734;-59
2023/12/16 00:51:56;;;;;;;2.10;1.30;;;7.30;99.90;;;;;;5135949;27;20422;-61
2023/12/16 00:54:24;;;;;;;2.60;1.23;;;7.20;99.90;;;;;;5135676;27;20427;-60
2023/12/16 00:56:51;;;;;;;2.90;1.35;;;7.10;99.90;;;;;;5146057;27;20898;-60
2023/12/16 00:59:18;;;;;;;3.20;1.40;;;7.00;99.90;;;;;;5154896;27;20425;-61
2023/12/16 01:01:45;;;;;;;2.50;1.20;;;7.10;99.90;;;;;;5134040;27;20437;-61
2023/12/16 01:04:12;;;;;;;3.38;1.20;;;7.00;99.90;;;;;;5135874;27;20830;-60
2023/12/16 01:06:40;;;;;;;2.50;1.13;;;6.90;99.90;;;;;;5134836;27;20821;-60
2023/12/16 01:09:07;;;;;;;1.80;1.10;;;7.00;99.90;;;;;;5135113;27;20418;-60
2023/12/16 01:11:35;;;;;;;2.00;1.20;;;7.00;99.90;;;;;;5135843;27;20418;-60
2023/12/16 01:14:02;;;;;;;2.05;1.20;;;7.00;99.90;;;;;;5132856;27;20426;-60
2023/12/16 01:16:29;;;;;;;2.50;1.10;;;7.00;99.90;;;;;;5124916;27;20418;-60
2023/12/16 01:18:56;;;;;;;1.80;1.00;;;6.90;99.90;;;;;;5134709;27;20429;-60
2023/12/16 01:21:23;;;;;;;1.50;1.20;;;6.90;99.90;;;;;;5135292;27;20410;-60
2023/12/16 01:23:52;;;;;;;1.57;1.10;;;7.00;99.90;;;;;;5135721;27;20513;-61
2023/12/16 01:26:19;;;;;;;2.30;1.10;;;7.00;99.90;;;;;;5135181;27;20414;-60
2023/12/16 01:28:46;;;;;;;1.90;1.10;;;7.00;99.90;;;;;;5133248;27;20422;-60
2023/12/16 01:31:13;;;;;;;2.30;1.10;;;7.10;99.90;;;;;;5134443;27;20425;-60
2023/12/16 01:33:40;;;;;;;2.63;1.20;;;7.00;99.90;;;;;;5133318;27;20420;-60
2023/12/16 01:36:08;;;;;;;3.60;1.10;;;7.00;99.90;;;;;;5133399;27;20411;-60
2023/12/16 01:38:35;;;;;;;3.08;1.30;;;7.00;99.90;;;;;;5133858;28;20430;-61
2023/12/16 01:41:03;;;;;;;2.35;1.10;;;7.00;99.90;;;;;;5133077;28;20422;-60
2023/12/16 01:43:31;;;;;;;2.88;1.20;;;7.10;99.90;;;;;;5133265;27;20424;-60
2023/12/16 01:46:05;;;;;;;1.60;1.00;;;7.00;99.90;;;;;;5134742;27;20426;-60
2023/12/16 01:48:33;;;;;;;2.57;1.10;;;7.00;99.90;;;;;;5134105;27;20433;-59
2023/12/16 01:51:01;;;;;;;1.90;1.03;;;7.20;99.90;;;;;;5148177;27;20925;-60
2023/12/16 01:53:30;;;;;;;1.50;1.00;;;7.30;99.90;;;;;;5156144;27;20416;-60
2023/12/16 01:55:58;;;;;;;1.70;1.10;;;7.30;99.90;;;;;;5155844;27;20417;-60
2023/12/16 01:58:26;;;;;;;2.47;1.00;;;7.20;99.90;;;;;;5150108;27;20432;-60
2023/12/16 02:00:54;;;;;;;1.75;1.00;;;7.10;99.90;;;;;;5131424;28;20418;-60
2023/12/16 02:03:21;;;;;;;2.10;1.00;;;7.00;99.90;;;;;;5148754;27;20432;-60
2023/12/16 02:05:48;;;;;;;2.00;1.10;;;7.00;99.90;;;;;;5154671;27;20411;-60
2023/12/16 02:08:15;;;;;;;2.10;1.10;;;6.90;99.90;;;;;;5154717;27;20420;-60
2023/12/16 02:10:43;;;;;;;2.10;1.00;;;6.90;99.90;;;;;;5154725;27;20854;-60
2023/12/16 02:13:10;;;;;;;1.90;0.88;;;7.00;99.90;;;;;;5141696;27;20513;-60
2023/12/16 02:15:38;;;;;;;1.80;1.00;;;7.10;99.90;;;;;;5134128;27;20470;-60
2023/12/16 02:18:05;;;;;;;1.50;0.80;;;7.20;99.90;;;;;;5135911;27;20840;-60
2023/12/16 02:20:32;;;;;;;1.90;0.90;;;7.20;99.90;;;;;;5138438;27;20410;-60
2023/12/16 02:23:02;;;;;;;2.50;1.00;;;7.30;99.90;;;;;;5126939;27;20442;-60
2023/12/16 02:25:31;;;;;;;1.48;0.90;;;7.30;99.90;;;;;;5117672;28;20420;-60
2023/12/16 02:27:58;;;;;;;2.80;1.00;;;7.20;99.90;;;;;;5117807;28;20420;-60
2023/12/16 02:30:25;;;;;;;1.60;1.00;;;7.20;99.90;;;;;;5117397;28;20434;-60
2023/12/16 02:32:55;;;;;;;1.52;1.00;;;7.20;99.90;;;;;;5117495;28;20417;-60
2023/12/16 02:35:22;;;;;;;3.03;0.93;;;7.10;99.90;;;;;;5118271;28;20427;-60
2023/12/16 02:37:49;;;;;;;1.70;0.90;;;7.10;99.90;;;;;;5117713;28;20420;-60
2023/12/16 02:40:17;;;;;;;1.60;0.90;;;7.10;99.90;;;;;;5125694;27;20423;-60
2023/12/16 02:42:46;;;;;;;1.60;0.90;;;7.10;99.90;;;;;;5145659;27;20877;-60
2023/12/16 02:45:13;;;;;;;1.67;0.80;;;7.00;99.90;;;;;;5138485;27;20835;-60
2023/12/16 02:47:41;;;;;;;2.50;0.90;;;7.00;99.90;;;;;;5137698;27;20414;-62
2023/12/16 02:50:09;;;;;;;1.30;0.80;;;7.00;99.90;;;;;;5137830;27;20954;-60
2023/12/16 02:52:36;;;;;;;1.40;0.80;;;7.10;99.90;;;;;;5136481;27;20722;-60
2023/12/16 02:55:03;;;;;;;1.20;0.80;;;7.00;99.90;;;;;;5138317;27;20847;-60
2023/12/16 02:57:30;;;;;;;1.60;0.80;;;7.10;99.90;;;;;;5138158;27;20841;-61
2023/12/16 02:59:59;;;;;;;1.45;0.80;;;7.20;99.90;;;;;;5138132;27;20417;-60
2023/12/16 03:02:26;;;;;;;1.40;0.90;;;7.10;99.90;;;;;;5137962;27;20480;-60
2023/12/16 03:04:53;;;;;;;2.53;0.90;;;7.20;99.90;;;;;;5138026;27;20931;-60
2023/12/16 03:07:20;;;;;;;2.10;0.80;;;7.20;99.90;;;;;;5137794;27;20422;-60
2023/12/16 03:09:47;;;;;;;1.90;1.00;;;7.20;99.90;;;;;;5137688;27;20430;-60
2023/12/16 03:12:15;;;;;;;2.50;0.90;;;7.20;99.90;;;;;;5132190;27;20423;-60
2023/12/16 03:14:42;;;;;;;1.20;0.82;;;7.10;99.90;;;;;;5136603;27;20423;-60
2023/12/16 03:17:10;;;;;;;1.20;0.80;;;7.00;99.90;;;;;;5138215;27;20418;-60
2023/12/16 03:19:38;;;;;;;1.55;0.80;;;6.90;99.90;;;;;;5137721;27;20418;-60
2023/12/16 03:22:05;;;;;;;1.50;0.80;;;6.80;99.90;;;;;;5136899;27;21034;-60
2023/12/16 03:24:32;;;;;;;1.60;0.80;;;6.80;99.90;;;;;;5137200;27;20418;-60
2023/12/16 03:26:59;;;;;;;1.30;0.80;;;7.00;99.90;;;;;;5136570;27;20411;-61
2023/12/16 03:29:28;;;;;;;1.80;0.90;;;7.00;99.90;;;;;;5135706;27;20423;-61
2023/12/16 03:31:55;;;;;;;0.90;0.70;;;7.00;99.90;;;;;;5135838;27;20433;-60
2023/12/16 03:34:24;;;;;;;1.38;0.80;;;7.00;99.90;;;;;;5126676;27;20410;-60
2023/12/16 03:36:51;;;;;;;1.65;1.00;;;6.90;99.90;;;;;;5135810;27;20509;-60
2023/12/16 03:39:18;;;;;;;1.80;1.00;;;7.00;99.90;;;;;;5122757;27;20758;-59
2023/12/16 03:41:46;;;;;;;2.70;0.98;;;7.00;99.90;;;;;;5126713;27;20433;-60
2023/12/16 03:44:13;;;;;;;1.50;0.90;;;7.00;99.90;;;;;;5134861;27;20470;-60
2023/12/16 03:46:41;;;;;;;1.70;0.80;;;7.00;99.90;;;;;;5136973;27;21034;-60
2023/12/16 03:49:08;;;;;;;1.85;0.80;;;7.10;99.90;;;;;;5134474;27;20877;-60
2023/12/16 03:51:37;;;;;;;1.40;0.80;;;7.20;99.90;;;;;;5128351;27;20424;-59
2023/12/16 03:54:05;;;;;;;1.00;0.70;;;7.10;99.90;;;;;;5132405;27;20450;-60
2023/12/16 03:56:32;;;;;;;1.30;0.80;;;7.10;99.90;;;;;;5134154;27;21061;-60
2023/12/16 03:58:59;;;;;;;1.25;0.80;;;7.10;99.90;;;;;;5128964;27;20450;-59
2023/12/16 04:01:26;;;;;;;1.23;0.90;;;7.10;99.90;;;;;;5113901;27;20442;-59
2023/12/16 04:03:53;;;;;;;1.80;0.93;;;7.00;99.90;;;;;;5128923;27;20926;-59
2023/12/16 04:06:21;;;;;;;2.20;0.90;;;6.80;99.90;;;;;;5126604;27;20435;-59
2023/12/16 04:08:49;;;;;;;2.42;0.90;;;6.90;99.90;;;;;;5137140;27;20466;-60
2023/12/16 04:11:16;;;;;;;1.40;0.80;;;6.90;99.90;;;;;;5137048;27;20508;-59
2023/12/16 04:13:43;;;;;;;1.15;0.80;;;7.00;99.90;;;;;;5140905;27;20876;-59
2023/12/16 04:16:11;;;;;;;1.80;0.90;;;7.10;99.90;;;;;;5137775;27;20432;-59
2023/12/16 04:18:38;;;;;;;1.98;0.90;;;7.10;99.90;;;;;;5126529;27;20438;-59
2023/12/16 04:21:05;;;;;;;1.38;0.90;;;7.10;99.90;;;;;;5132464;27;20462;-59
2023/12/16 04:23:32;;;;;;;1.30;0.80;;;7.10;99.90;;;;;;5128082;27;20427;-59
2023/12/16 04:26:01;;;;;;;1.60;0.90;;;7.00;99.90;;;;;;5135340;27;20436;-59
2023/12/16 04:28:28;;;;;;;1.42;0.90;;;7.00;99.90;;;;;;5141643;27;20432;-63
2023/12/16 04:30:55;;;;;;;1.10;0.70;;;7.00;99.90;;;;;;5139138;27;20434;-63
2023/12/16 04:33:22;;;;;;;1.40;0.88;;;7.00;99.90;;;;;;5135914;27;20411;-63
2023/12/16 04:35:49;;;;;;;1.60;0.70;;;7.00;99.90;;;;;;5134838;27;20430;-63
2023/12/16 04:38:16;;;;;;;1.50;0.90;;;6.80;99.90;;;;;;5135617;27;20426;-64
2023/12/16 04:40:43;;;;;;;2.30;0.70;;;6.80;99.90;;;;;;5134826;27;20416;-64
2023/12/16 04:43:11;;;;;;;1.77;0.70;;;6.80;99.90;;;;;;5143369;27;20714;-64
2023/12/16 04:45:38;;;;;;;1.30;0.80;;;6.80;99.90;;;;;;5135593;27;20430;-64
2023/12/16 04:48:06;;;;;;;1.00;0.70;;;6.80;99.90;;;;;;5135493;27;20440;-64
2023/12/16 04:50:33;;;;;;;1.30;0.75;;;6.90;99.90;;;;;;5135392;27;20407;-63
2023/12/16 04:53:00;;;;;;;1.85;0.90;;;6.90;99.90;;;;;;5128241;27;20428;-64
2023/12/16 04:55:27;;;;;;;1.30;0.80;;;6.90;99.90;;;;;;5112615;27;20441;-63
2023/12/16 04:57:54;;;;;;;1.00;0.68;;;6.90;99.90;;;;;;5135424;27;20450;-64
2023/12/16 05:00:23;;;;;;;1.50;0.70;;;6.90;99.90;;;;;;5135721;27;20437;-64
2023/12/16 05:02:50;;;;;;;1.10;0.60;;;6.90;99.90;;;;;;5134991;27;20413;-63
2023/12/16 05:05:17;;;;;;;1.05;0.60;;;6.80;99.90;;;;;;5135412;27;20785;-64
2023/12/16 05:07:44;;;;;;;1.40;0.70;;;6.80;99.90;;;;;;5135996;27;20706;-64
2023/12/16 05:10:11;;;;;;;1.70;0.70;;;6.70;99.90;;;;;;5135443;27;20425;-63
2023/12/16 05:12:40;;;;;;;1.10;0.70;;;6.70;99.90;;;;;;5135264;27;20422;-64
2023/12/16 05:15:07;;;;;;;2.80;0.82;;;6.50;99.90;;;;;;5135249;27;20505;-63
2023/12/16 05:17:36;;;;;;;1.50;0.70;;;6.50;99.90;;;;;;5135624;27;20433;-63
2023/12/16 05:20:03;;;;;;;1.20;0.70;;;6.60;99.90;;;;;;5127189;27;20912;-63
2023/12/16 05:22:33;;;;;;;1.67;0.70;;;6.50;99.90;;;;;;5114452;28;20839;-63
2023/12/16 05:25:01;;;;;;;1.60;0.90;;;6.40;99.90;;;;;;5114657;28;20432;-63
2023/12/16 05:27:29;;;;;;;1.88;0.70;;;6.40;99.90;;;;;;5114437;28;20424;-63
2023/12/16 05:29:57;;;;;;;1.53;0.90;;;6.50;99.90;;;;;;5114528;28;20452;-63
2023/12/16 05:32:24;;;;;;;1.10;0.80;;;6.40;99.90;;;;;;5115080;28;20428;-63
2023/12/16 05:34:52;;;;;;;1.75;0.80;;;6.40;99.90;;;;;;5113406;28;20427;-64
2023/12/16 05:37:20;;;;;;;2.13;0.80;;;6.60;99.90;;;;;;5114985;28;20814;-64
2023/12/16 05:39:47;;;;;;;1.30;0.70;;;6.70;99.90;;;;;;5128242;28;20440;-63
2023/12/16 05:42:14;;;;;;;1.05;0.70;;;6.70;99.90;;;;;;5131190;28;20421;-63
2023/12/16 05:44:41;;;;;;;1.10;0.70;;;6.80;99.90;;;;;;5134080;28;20426;-62
2023/12/16 05:47:09;;;;;;;1.20;0.63;;;6.90;99.90;;;;;;5134289;28;20426;-64
2023/12/16 05:49:36;;;;;;;1.10;0.70;;;7.00;99.90;;;;;;5133491;28;20423;-64
2023/12/16 05:52:05;;;;;;;1.15;0.60;;;7.00;99.90;;;;;;5133611;27;20415;-63
2023/12/16 05:54:32;;;;;;;1.80;0.60;;;7.10;99.90;;;;;;5137388;27;20418;-65
2023/12/16 05:56:59;;;;;;;1.05;0.60;;;7.00;99.90;;;;;;5137755;27;20418;-67
2023/12/16 05:59:27;;;;;;;1.00;0.70;;;7.00;99.90;;;;;;5135964;27;20718;-66
2023/12/16 06:01:55;;;;;;;2.22;0.70;;;7.00;99.90;;;;;;5109061;28;20424;-66
2023/12/16 06:04:22;;;;;;;1.30;0.70;;;7.00;99.90;;;;;;5108949;28;20437;-66
2023/12/16 06:06:49;;;;;;;1.10;0.70;;;7.00;99.90;;;;;;5111941;28;20717;-66
2023/12/16 06:09:18;;;;;;;1.90;0.70;;;7.10;99.90;;;;;;5114373;28;20419;-65
2023/12/16 06:11:45;;;;;;;1.10;0.70;;;7.00;99.90;;;;;;5112889;27;20426;-66
2023/12/16 06:14:12;;;;;;;0.90;0.60;;;7.00;99.90;;;;;;5138598;27;20422;-66
2023/12/16 06:16:39;;;;;;;1.20;0.60;;;7.00;99.90;;;;;;5123375;27;20431;-66
2023/12/16 06:19:06;;;;;;;1.55;0.80;;;6.80;99.90;;;;;;5117896;28;20412;-66
2023/12/16 06:21:33;;;;;;;1.20;0.70;;;6.80;99.90;;;;;;5135703;27;20854;-66
2023/12/16 06:24:02;;;;;;;6.63;0.80;;;6.80;99.90;;;;;;5138270;27;20426;-67
2023/12/16 06:26:30;;;;;;;1.10;0.65;;;6.70;99.90;;;;;;5138567;27;20422;-66
2023/12/16 06:28:58;;;;;;;1.80;0.80;;;6.70;99.90;;;;;;5138116;27;20418;-67
2023/12/16 06:31:25;;;;;;;1.38;0.70;;;6.70;99.90;;;;;;5139106;27;20425;-67
2023/12/16 06:33:52;;;;;;;1.17;0.70;;;6.70;99.90;;;;;;5138467;27;20419;-67
2023/12/16 06:36:19;;;;;;;1.30;0.70;;;6.60;99.90;;;;;;5137025;27;20415;-66
2023/12/16 06:38:46;;;;;;;1.00;0.70;;;6.60;99.90;;;;;;5125921;27;20430;-66
2023/12/16 06:41:13;;;;;;;1.73;0.80;;;6.60;99.90;;;;;;5115697;27;20440;-65
2023/12/16 06:43:42;;;;;;;1.30;0.80;;;6.70;99.90;;;;;;5135456;27;20853;-67
2023/12/16 06:46:08;;;;;;;1.10;0.70;;;6.70;99.90;;;;;;5137838;27;20418;-67
2023/12/16 06:48:35;;;;;;;1.30;0.80;;;6.80;99.90;;;;;;5139041;27;20512;-66
2023/12/16 06:51:03;;;;;;;1.20;0.75;;;6.70;99.90;;;;;;5137671;27;20842;-62
2023/12/16 06:53:30;;;;;;;1.20;0.70;;;7.00;99.90;;;;;;5137737;27;20502;-62
2023/12/16 06:55:58;;;;;;;2.72;0.70;;;6.90;99.90;;;;;;5136881;27;20418;-62
2023/12/16 06:58:25;;;;;;;1.83;0.87;;;7.00;99.90;;;;;;5136805;27;20509;-62
2023/12/16 07:00:53;;;;;;;1.20;0.70;;;7.00;99.90;;;;;;5114825;27;20420;-63
2023/12/16 07:03:20;;;;;;;1.10;0.80;;;7.00;99.90;;;;;;5114800;28;20412;-63
2023/12/16 07:05:47;;;;;;;1.00;0.70;;;7.20;99.90;;;;;;5135765;27;20719;-62
2023/12/16 07:08:14;;;;;;;2.00;0.90;;;7.30;99.90;;;;;;5130064;27;21034;-62
2023/12/16 07:10:41;;;;;;;1.20;0.70;;;7.20;94.80;;;;;;5124957;27;20442;-62
2023/12/16 07:13:09;;;;;;;1.20;0.70;;;7.00;84.40;;;;;;5134248;27;20422;-60
2023/12/16 07:15:36;;;;;;;1.50;0.80;;;6.70;97.60;;;;;;5136892;27;20722;-62
2023/12/16 07:18:05;;;;;;;1.40;0.80;;;6.40;99.90;;;;;;5136704;27;20418;-61
2023/12/16 07:20:32;;;;;;;1.90;0.80;;;6.30;99.90;;;;;;5136414;27;20410;-61
2023/12/16 07:22:59;;;;;;;1.60;0.80;;;6.20;99.90;;;;;;5133806;27;20864;-62
2023/12/16 07:25:26;;;;;;;1.25;0.90;;;6.00;99.90;;;;;;5131349;27;20861;-62
2023/12/16 07:27:54;;;;;;;1.65;0.90;;;6.00;99.90;;;;;;5121955;27;20528;-60
2023/12/16 07:30:21;;;;;;;1.40;0.90;;;6.00;99.90;;;;;;5116696;28;20416;-60
2023/12/16 07:32:48;;;;;;;1.70;0.90;;;6.00;99.90;;;;;;5116834;28;20408;-60
2023/12/16 07:35:16;;;;;;;2.50;0.80;;;5.90;99.90;;;;;;5115309;28;20416;-60
2023/12/16 07:37:44;;;;;;;1.50;0.80;;;5.90;99.90;;;;;;5117255;28;20932;-60
2023/12/16 07:40:12;;;;;;;1.50;0.90;;;6.00;99.90;;;;;;5133953;27;20494;-60
2023/12/16 07:42:41;;;;;;;1.45;0.90;;;6.00;99.90;;;;;;5136752;27;20418;-61
2023/12/16 07:45:09;;;;;;;2.00;0.70;;;6.00;99.90;;;;;;5135893;27;20838;-61
2023/12/16 07:47:36;;;;;;;1.30;0.80;;;6.10;99.90;;;;;;5118672;27;20427;-61
2023/12/16 07:50:04;;;;;;;1.80;0.80;;;6.00;99.90;;;;;;5120607;27;20769;-61
2023/12/16 07:52:33;;;;;;;1.60;0.90;;;6.00;99.90;;;;;;5136405;27;20857;-61
2023/12/16 07:55:00;;;;;;;1.40;0.88;;;5.90;99.90;;;;;;5135634;27;20419;-59
2023/12/16 07:57:27;;;;;;;1.30;0.77;;;5.80;99.90;;;;;;5136072;27;20423;-59
2023/12/16 07:59:54;;;;;;;1.60;0.80;;;5.80;99.90;;;;;;5136668;27;20418;-59
2023/12/16 08:02:21;;;;;;;1.55;0.80;;;5.80;99.90;;;;;;5136701;27;20424;-58
2023/12/16 08:04:49;;;;;;;1.50;0.90;;;5.90;99.90;;;;;;5128260;27;20938;-60
2023/12/16 08:07:16;;;;;;;1.60;0.85;;;5.90;99.90;;;;;;5134615;27;20434;-59
2023/12/16 08:09:44;;;;;;;2.50;0.90;;;6.00;99.90;;;;;;5128766;27;20536;-60
2023/12/16 08:12:12;;;;;;;1.27;0.80;;;6.00;99.90;;;;;;5128681;27;20434;-60
2023/12/16 08:14:39;;;;;;;1.60;0.80;;;6.10;99.90;;;;;;5133040;27;20507;-59
2023/12/16 08:17:06;;;;;;;1.77;0.77;;;6.10;99.90;;;;;;5129014;27;20430;-59
2023/12/16 08:19:33;;;;;;;1.50;0.80;;;6.10;99.90;;;;;;5130216;27;20433;-60
2023/12/16 08:22:00;;;;;;;1.30;0.73;;;6.10;99.90;;;;;;5130924;27;20434;-63
2023/12/16 08:24:29;;;;;;;1.30;0.70;;;6.10;99.90;;;;;;5129901;27;20430;-60
2023/12/16 08:26:58;;;;;;;1.60;0.88;;;6.10;99.90;;;;;;5125584;27;20726;-59
2023/12/16 08:29:25;;;;;;;1.75;0.80;;;6.00;99.90;;;;;;5124167;27;20431;-59
2023/12/16 08:31:52;;;;;;;1.70;0.90;;;6.10;99.90;;;;;;5130101;27;20746;-59
2023/12/16 08:34:22;;;;;;;1.30;0.80;;;6.10;99.90;;;;;;5137568;27;20414;-59
2023/12/16 08:36:49;;;;;;;1.80;0.80;;;6.10;99.90;;;;;;5130717;27;20422;-59
2023/12/16 08:39:16;;;;;;;1.30;0.80;;;6.20;99.90;;;;;;5134110;27;20410;-59
2023/12/16 08:41:44;;;;;;;1.60;0.70;;;6.20;99.90;;;;;;5118846;27;20429;-59
2023/12/16 08:44:13;;;;;;;0.90;0.60;;;6.30;99.90;;;;;;5131136;27;20476;-59
2023/12/16 08:46:43;;;;;;;1.50;0.80;;;6.60;99.90;;;;;;5131706;27;20467;-59
2023/12/16 08:49:10;;;;;;;1.30;0.80;;;6.80;99.90;;;;;;5126741;27;20427;-59
2023/12/16 08:51:37;;;;;;;1.00;0.80;;;6.80;99.90;;;;;;5129633;27;20721;-59
2023/12/16 08:54:05;;;;;;;1.60;0.80;;;6.70;99.90;;;;;;5140768;27;20810;-58
2023/12/16 08:56:32;;;;;;;1.50;0.80;;;6.60;99.90;;;;;;5139530;27;20819;-58
2023/12/16 08:58:59;;;;;;;2.50;0.80;;;6.50;99.90;;;;;;5131915;27;20434;-58
2023/12/16 09:01:28;;;;;;;1.33;0.80;;;6.50;99.90;;;;;;5131612;27;20435;-58
2023/12/16 09:03:55;;;;;;;1.40;0.80;;;6.40;99.90;;;;;;5125595;27;20428;-58
2023/12/16 09:06:24;;;;;;;1.52;0.77;;;6.40;99.90;;;;;;5134109;27;20426;-59
2023/12/16 09:08:51;;;;;;;1.70;0.80;;;6.50;99.90;;;;;;5132693;27;20423;-59
2023/12/16 09:11:18;;;;;;;1.80;0.80;;;6.50;99.90;;;;;;5128600;27;20422;-59
2023/12/16 09:13:45;;;;;;;1.70;0.80;;;6.70;99.90;;;;;;5134713;27;20737;-59
2023/12/16 09:16:12;;;;;;;1.65;0.70;;;6.60;99.90;;;;;;5132940;27;20417;-58
2023/12/16 09:18:41;;;;;;;3.22;0.90;;;6.60;99.90;;;;;;5133687;27;20778;-58
2023/12/16 09:21:07;;;;;;;1.20;0.85;;;6.50;99.90;;;;;;5128091;27;20425;-58
2023/12/16 09:23:35;;;;;;;1.10;0.70;;;6.50;99.90;;;;;;5130157;27;20513;-59
2023/12/16 09:26:03;;;;;;;2.20;0.60;;;6.50;99.90;;;;;;5124196;27;20437;-59
2023/12/16 09:28:30;;;;;;;2.25;0.80;;;6.60;99.90;;;;;;5128977;27;20922;-59
2023/12/16 09:30:57;;;;;;;1.30;0.70;;;6.60;99.90;;;;;;5126711;27;20427;-60
2023/12/16 09:33:25;;;;;;;1.88;0.90;;;6.60;99.90;;;;;;5124352;27;20429;-60
2023/12/16 09:35:53;;;;;;;1.80;0.88;;;6.60;99.90;;;;;;5119514;27;20771;-60
2023/12/16 09:38:20;;;;;;;1.10;0.80;;;6.70;99.90;;;;;;5130260;27;20434;-60
2023/12/16 09:40:47;;;;;;;1.50;0.80;;;6.70;99.90;;;;;;5130868;27;21030;-60
2023/12/16 09:43:17;;;;;;;1.40;0.80;;;6.80;99.90;;;;;;5119695;28;20447;-60
2023/12/16 09:45:47;;;;;;;1.65;0.80;;;6.80;99.90;;;;;;5120060;28;20436;-59
2023/12/16 09:48:16;;;;;;;2.28;0.80;;;6.80;99.90;;;;;;5127403;27;20432;-59
2023/12/16 09:50:45;;;;;;;2.20;0.80;;;6.90;99.90;;;;;;5127415;28;20424;-59
2023/12/16 09:53:13;;;;;;;1.90;0.90;;;6.80;99.90;;;;;;5122628;28;20426;-60
2023/12/16 09:55:42;;;;;;;1.52;0.80;;;6.90;99.90;;;;;;5130409;28;20407;-59
2023/12/16 09:58:16;;;;;;;1.90;0.80;;;6.90;99.90;;;;;;5125171;28;20852;-59
2023/12/16 10:00:47;;;;;;;2.85;0.90;;;7.10;99.90;;;;;;5121641;28;20905;-60
2023/12/16 10:03:15;;;;;;;1.60;1.00;;;7.10;99.90;;;;;;5121906;28;20475;-60
2023/12/16 10:05:46;;;;;;;3.25;1.00;;;7.10;99.90;;;;;;5126504;28;20430;-61
2023/12/16 10:08:14;;;;;;;1.58;0.80;;;7.10;99.90;;;;;;5129967;28;20422;-59
2023/12/16 10:10:42;;;;;;;1.10;0.70;;;7.10;99.90;;;;;;5124007;28;20742;-59
2023/12/16 10:13:09;;;;;;;1.10;0.70;;;7.10;99.90;;;;;;5131394;28;20873;-59
2023/12/16 10:15:37;;;;;;;2.10;0.80;;;7.10;99.90;;;;;;5123931;28;20420;-60
2023/12/16 10:18:05;;;;;;;3.10;1.00;;;7.10;99.90;;;;;;5121444;28;20654;-59
2023/12/16 10:20:32;;;;;;;1.40;0.90;;;7.10;99.90;;;;;;5124632;28;21735;-60
2023/12/16 10:23:01;;;;;;;1.63;0.85;;;7.10;99.90;;;;;;5129450;28;20430;-59
2023/12/16 10:25:31;;;;;;;1.20;0.80;;;7.10;99.90;;;;;;5126597;28;20497;-60
2023/12/16 10:28:00;;;;;;;1.50;0.80;;;7.10;99.90;;;;;;5125810;28;20433;-60
2023/12/16 10:30:28;;;;;;;1.37;0.90;;;7.20;99.90;;;;;;5124306;28;20728;-60
2023/12/16 10:32:56;;;;;;;1.80;0.80;;;7.20;99.90;;;;;;5127381;28;20415;-60
2023/12/16 10:35:24;;;;;;;1.70;0.90;;;7.30;99.90;;;;;;5123997;28;20435;-59
2023/12/16 10:37:52;;;;;;;1.27;0.80;;;7.20;99.90;;;;;;5129497;27;20475;-60
2023/12/16 10:40:19;;;;;;;1.40;0.90;;;7.30;99.90;;;;;;5122499;27;20424;-60
2023/12/16 10:42:48;;;;;;;1.80;0.90;;;7.30;99.90;;;;;;5131330;27;20527;-60
2023/12/16 10:45:15;;;;;;;2.15;0.90;;;7.20;99.90;;;;;;5145731;27;20534;-60
2023/12/16 10:47:43;;;;;;;1.13;0.80;;;7.30;99.90;;;;;;5128445;27;20522;-60
2023/12/16 10:50:13;;;;;;;2.17;1.00;;;7.30;99.90;;;;;;5133219;27;20434;-60
2023/12/16 10:52:43;;;;;;;2.00;1.00;;;7.40;99.90;;;;;;5137309;27;20858;-62
2023/12/16 10:55:15;;;;;;;1.40;0.80;;;7.50;99.90;;;;;;5125070;27;20421;-59
2023/12/16 10:57:50;;;;;;;2.25;0.93;;;7.50;91.50;;;;;;5136460;27;20828;-58
2023/12/16 11:00:23;;;;;;;1.40;0.80;;;7.50;92.60;;;;;;5149681;27;20413;-58
2023/12/16 11:03:01;;;;;;;2.37;0.80;;;7.40;80.80;;;;;;5127771;27;20448;-59
2023/12/16 11:05:31;;;;;;;2.30;0.70;;;7.90;99.90;;;;;;5129525;27;20835;-59
2023/12/16 11:08:01;;;;;;;1.10;0.60;;;8.40;89.40;;;;;;5136873;27;20471;-59
2023/12/16 11:10:30;;;;;;;2.60;0.90;;;8.50;35.50;;;;;;5130046;27;20561;-59
2023/12/16 11:13:00;;;;;;;2.50;0.90;;;8.70;8.10;;;;;;5126322;27;20446;-60
2023/12/16 11:15:28;;;;;;;1.83;0.80;;;8.80;1.00;;;;;;5118593;27;20416;-59
2023/12/16 11:18:01;;;;;;;1.55;0.80;;;8.70;2.60;;;;;;5133820;27;20745;-59
2023/12/16 11:20:38;;;;;;;1.63;0.70;;;8.70;3.40;;;;;;5135628;27;20462;-59
2023/12/16 11:23:05;;;;;;;1.20;0.70;;;8.80;1.00;;;;;;5127347;27;20868;-60
2023/12/16 11:25:34;;;;;;;2.40;0.70;;;9.30;1.00;;;;;;5126847;27;20453;-60
2023/12/16 11:28:04;;;;;;;2.00;0.60;;;9.70;1.00;;;;;;5117164;27;20427;-60
2023/12/16 11:30:34;;;;;;;1.40;0.70;;;9.60;1.00;;;;;;5132760;27;20436;-60
2023/12/16 11:33:03;;;;;;;1.30;0.70;;;9.60;1.00;;;;;;5141645;27;20421;-60
2023/12/16 11:35:50;;;;;;;1.60;0.70;;;9.70;1.00;;;;;;5143461;27;20490;-60
2023/12/16 11:38:37;;;;;;;1.70;0.70;;;9.60;1.00;;;;;;5108557;27;20949;-59
2023/12/16 11:41:05;;;;;;;1.20;0.70;;;9.40;1.00;;;;;;5126639;27;20438;-60
2023/12/16 11:43:51;;;;;;;10.35;1.10;;;9.30;1.00;;;;;;5130262;27;20499;-68
2023/12/16 11:46:38;;;;;;;20.98;1.67;;;9.40;1.00;;;;;;5129879;27;20787;-57
2023/12/16 11:49:10;;;;;;;59.20;5.30;;;9.40;1.00;;;;;;5125209;27;20426;-56
2023/12/16 11:51:39;;;;;;;28.65;1.90;;;9.50;1.00;;;;;;5126908;27;20436;-56
2023/12/16 11:54:08;;;;;;;22.30;1.80;;;9.50;1.00;;;;;;5117355;27;20424;-54
2023/12/16 11:56:36;;;;;;;11.90;1.00;;;9.80;1.00;;;;;;5117695;27;20423;-52
2023/12/16 11:59:07;;;;;;;4.95;0.90;;;10.00;1.00;;;;;;5130413;27;20418;-53
2023/12/16 12:01:35;;;;;;;2.20;0.70;;;10.00;1.00;;;;;;5126126;27;20432;-55
2023/12/16 12:04:06;;;;;;;12.63;1.10;;;9.70;1.00;;;;;;5133542;27;20889;-56
2023/12/16 12:06:33;;;;;;;2.42;0.90;;;9.50;1.00;;;;;;5133587;27;20533;-54
2023/12/16 12:09:00;;;;;;;13.18;1.65;;;9.50;1.00;;;;;;5124561;27;20419;-53
2023/12/16 12:11:28;;;;;;;12.85;1.40;;;9.70;1.00;;;;;;5122246;27;20893;-54
2023/12/16 12:13:55;;;;;;;6.43;0.90;;;9.70;1.00;;;;;;5139441;27;20479;-56
2023/12/16 12:16:28;;;;;;;7.03;1.00;;;9.40;1.00;;;;;;5133287;27;20422;-53
2023/12/16 12:18:56;;;;;;;2.65;0.90;;;9.40;1.00;;;;;;5119525;27;20523;-55
2023/12/16 12:21:23;;;;;;;3.38;0.90;;;9.50;1.00;;;;;;5132236;27;20420;-54
2023/12/16 12:23:52;;;;;;;2.50;0.80;;;9.40;1.00;;;;;;5134191;27;20750;-51
2023/12/16 12:26:21;;;;;;;2.13;0.82;;;9.60;1.00;;;;;;5128628;27;20484;-54
2023/12/16 12:28:58;;;;;;;3.45;0.90;;;9.70;1.00;;;;;;5131022;27;20438;-53
2023/12/16 12:31:26;;;;;;;4.03;1.00;;;9.60;1.00;;;;;;5126509;27;20434;-52
2023/12/16 12:33:56;;;;;;;1.73;1.05;;;9.60;1.00;;;;;;5121778;27;20773;-53
2023/12/16 12:36:23;;;;;;;1.90;0.93;;;9.50;1.00;;;;;;5126888;27;20433;-56
2023/12/16 12:38:55;;;;;;;1.90;0.90;;;9.20;1.00;;;;;;5116685;27;20431;-52
2023/12/16 12:41:22;;;;;;;1.40;0.80;;;9.10;1.00;;;;;;5120503;27;21019;-54
2023/12/16 12:43:50;;;;;;;2.10;0.93;;;8.90;1.00;;;;;;5129220;27;20438;-52
2023/12/16 12:46:17;;;;;;;2.30;0.90;;;8.90;1.00;;;;;;5131043;27;20846;-50
2023/12/16 12:48:57;;;;;;;2.75;0.90;;;8.80;1.00;;;;;;5129633;27;20465;-53
2023/12/16 12:51:27;;;;;;;2.03;0.90;;;8.70;1.00;;;;;;5132868;27;20521;-54
2023/12/16 12:53:58;;;;;;;3.50;0.90;;;8.70;1.00;;;;;;5125272;27;20505;-53
2023/12/16 12:56:26;;;;;;;4.20;0.80;;;9.00;1.00;;;;;;5130939;27;20960;-52
2023/12/16 12:58:53;;;;;;;2.08;0.77;;;9.20;1.00;;;;;;5123065;27;20470;-52
2023/12/16 13:01:20;;;;;;;3.58;0.80;;;9.30;1.00;;;;;;5124258;27;20430;-51